sensor_id;sensor_type;location;lat;lon;timestamp;temperature;humidity
18309;DHT22;9280;50.276;18.650;2022-07-24T00:01:18;19.60;99.90
18309;DHT22;9280;50.276;18.650;2022-07-24T00:04:06;19.60;99.90
18309;DHT22;9280;50.276;18.650;2022-07-24T00:06:52;19.60;99.90
18309;DHT22;9280;50.276;18.650;2022-07-24T00:09:38;19.60;99.90
18309;DHT22;9280;50.276;18.650;2022-07-24T00:12:24;19.60;99.90
18309;DHT22;9280;50.276;18.650;2022-07-24T00:15:10;19.60;99.90
18309;DHT22;9280;50.276;18.650;2022-07-24T00:17:58;19.60;99.90
18309;DHT22;9280;50.276;18.650;2022-07-24T00:20:44;19.60;99.90
18309;DHT22;9280;50.276;18.650;2022-07-24T00:23:31;19.50;99.90
18309;DHT22;9280;50.276;18.650;2022-07-24T00:26:17;19.50;99.90
18309;DHT22;9280;50.276;18.650;2022-07-24T00:29:03;19.50;99.90
18309;DHT22;9280;50.276;18.650;2022-07-24T00:31:50;19.50;99.90
18309;DHT22;9280;50.276;18.650;2022-07-24T00:34:37;19.50;99.90
18309;DHT22;9280;50.276;18.650;2022-07-24T00:37:24;19.50;99.90
18309;DHT22;9280;50.276;18.650;2022-07-24T00:40:12;19.50;99.90
18309;DHT22;9280;50.276;18.650;2022-07-24T00:43:00;19.40;99.90
18309;DHT22;9280;50.276;18.650;2022-07-24T00:45:46;19.40;99.90
18309;DHT22;9280;50.276;18.650;2022-07-24T00:48:32;19.40;99.90
18309;DHT22;9280;50.276;18.650;2022-07-24T00:51:20;19.40;99.90
18309;DHT22;9280;50.276;18.650;2022-07-24T00:54:08;19.40;99.90
18309;DHT22;9280;50.276;18.650;2022-07-24T00:56:55;19.30;99.90
18309;DHT22;9280;50.276;18.650;2022-07-24T00:59:41;19.40;99.90
18309;DHT22;9280;50.276;18.650;2022-07-24T01:02:27;19.30;99.90
18309;DHT22;9280;50.276;18.650;2022-07-24T01:05:13;19.30;99.90
18309;DHT22;9280;50.276;18.650;2022-07-24T01:08:01;19.20;99.90
18309;DHT22;9280;50.276;18.650;2022-07-24T01:10:47;19.10;99.90
18309;DHT22;9280;50.276;18.650;2022-07-24T01:13:33;19.10;99.90
18309;DHT22;9280;50.276;18.650;2022-07-24T01:16:20;19.10;99.90
18309;DHT22;9280;50.276;18.650;2022-07-24T01:19:06;18.90;99.90
18309;DHT22;9280;50.276;18.650;2022-07-24T01:21:54;18.90;99.90
18309;DHT22;9280;50.276;18.650;2022-07-24T01:24:40;18.80;99.90
18309;DHT22;9280;50.276;18.650;2022-07-24T01:27:26;18.70;99.90
18309;DHT22;9280;50.276;18.650;2022-07-24T01:30:13;18.70;99.90
18309;DHT22;9280;50.276;18.650;2022-07-24T01:32:59;18.60;99.90
18309;DHT22;9280;50.276;18.650;2022-07-24T01:35:46;18.50;99.90
18309;DHT22;9280;50.276;18.650;2022-07-24T01:38:34;18.50;99.90
18309;DHT22;9280;50.276;18.650;2022-07-24T01:41:20;18.50;99.90
18309;DHT22;9280;50.276;18.650;2022-07-24T01:44:06;18.50;99.90
18309;DHT22;9280;50.276;18.650;2022-07-24T01:46:52;18.40;99.90
18309;DHT22;9280;50.276;18.650;2022-07-24T01:49:38;18.40;99.90
18309;DHT22;9280;50.276;18.650;2022-07-24T01:52:24;18.30;99.90
18309;DHT22;9280;50.276;18.650;2022-07-24T01:55:12;18.30;99.90
18309;DHT22;9280;50.276;18.650;2022-07-24T01:57:59;18.20;99.90
18309;DHT22;9280;50.276;18.650;2022-07-24T02:00:46;18.10;99.90
18309;DHT22;9280;50.276;18.650;2022-07-24T02:03:32;18.20;99.90
18309;DHT22;9280;50.276;18.650;2022-07-24T02:06:18;18.10;99.90
18309;DHT22;9280;50.276;18.650;2022-07-24T02:09:04;18.00;99.90
18309;DHT22;9280;50.276;18.650;2022-07-24T02:11:52;18.00;99.90
18309;DHT22;9280;50.276;18.650;2022-07-24T02:14:38;18.00;99.90
18309;DHT22;9280;50.276;18.650;2022-07-24T02:17:25;17.80;99.90
18309;DHT22;9280;50.276;18.650;2022-07-24T02:20:11;17.90;99.90
18309;DHT22;9280;50.276;18.650;2022-07-24T02:22:57;17.90;99.90
18309;DHT22;9280;50.276;18.650;2022-07-24T02:25:44;17.90;99.90
18309;DHT22;9280;50.276;18.650;2022-07-24T02:28:32;17.80;99.90
18309;DHT22;9280;50.276;18.650;2022-07-24T02:31:18;17.80;99.90
18309;DHT22;9280;50.276;18.650;2022-07-24T02:34:04;17.70;99.90
18309;DHT22;9280;50.276;18.650;2022-07-24T02:36:51;17.70;99.90
18309;DHT22;9280;50.276;18.650;2022-07-24T02:39:37;17.60;99.90
18309;DHT22;9280;50.276;18.650;2022-07-24T02:42:23;17.60;99.90
18309;DHT22;9280;50.276;18.650;2022-07-24T02:45:11;17.50;99.90
18309;DHT22;9280;50.276;18.650;2022-07-24T02:47:58;17.40;99.90
18309;DHT22;9280;50.276;18.650;2022-07-24T02:50:44;17.40;99.90
18309;DHT22;9280;50.276;18.650;2022-07-24T02:53:31;17.40;99.90
18309;DHT22;9280;50.276;18.650;2022-07-24T02:56:17;17.30;99.90
18309;DHT22;9280;50.276;18.650;2022-07-24T02:59:03;17.30;99.90
18309;DHT22;9280;50.276;18.650;2022-07-24T03:01:51;17.20;99.90
18309;DHT22;9280;50.276;18.650;2022-07-24T03:04:37;17.20;99.90
18309;DHT22;9280;50.276;18.650;2022-07-24T03:07:24;17.20;99.90
18309;DHT22;9280;50.276;18.650;2022-07-24T03:10:12;17.10;99.90
18309;DHT22;9280;50.276;18.650;2022-07-24T03:12:58;17.10;99.90
18309;DHT22;9280;50.276;18.650;2022-07-24T03:15:44;17.00;99.90
18309;DHT22;9280;50.276;18.650;2022-07-24T03:18:32;17.00;99.90
18309;DHT22;9280;50.276;18.650;2022-07-24T03:21:18;17.00;99.90
18309;DHT22;9280;50.276;18.650;2022-07-24T03:24:04;17.00;99.90
18309;DHT22;9280;50.276;18.650;2022-07-24T03:26:51;17.00;99.90
18309;DHT22;9280;50.276;18.650;2022-07-24T03:29:37;17.00;99.90
18309;DHT22;9280;50.276;18.650;2022-07-24T03:32:23;17.10;99.90
18309;DHT22;9280;50.276;18.650;2022-07-24T03:35:11;17.10;99.90
18309;DHT22;9280;50.276;18.650;2022-07-24T03:37:57;17.10;99.90
18309;DHT22;9280;50.276;18.650;2022-07-24T03:40:43;17.20;99.90
18309;DHT22;9280;50.276;18.650;2022-07-24T03:43:30;17.20;99.90
18309;DHT22;9280;50.276;18.650;2022-07-24T03:46:16;17.20;99.90
18309;DHT22;9280;50.276;18.650;2022-07-24T03:49:02;17.20;99.90
18309;DHT22;9280;50.276;18.650;2022-07-24T03:51:50;17.20;99.90
18309;DHT22;9280;50.276;18.650;2022-07-24T03:54:37;17.20;99.90
18309;DHT22;9280;50.276;18.650;2022-07-24T03:57:23;17.20;99.90
18309;DHT22;9280;50.276;18.650;2022-07-24T04:00:10;17.20;99.90
18309;DHT22;9280;50.276;18.650;2022-07-24T04:02:59;17.20;99.90
18309;DHT22;9280;50.276;18.650;2022-07-24T04:05:45;17.30;99.90
18309;DHT22;9280;50.276;18.650;2022-07-24T04:08:33;17.30;99.90
18309;DHT22;9280;50.276;18.650;2022-07-24T04:11:19;17.40;99.90
18309;DHT22;9280;50.276;18.650;2022-07-24T04:14:05;17.40;99.90
18309;DHT22;9280;50.276;18.650;2022-07-24T04:16:51;17.50;99.90
18309;DHT22;9280;50.276;18.650;2022-07-24T04:19:37;17.60;99.90
18309;DHT22;9280;50.276;18.650;2022-07-24T04:22:23;17.60;99.90
18309;DHT22;9280;50.276;18.650;2022-07-24T04:25:11;17.60;99.90
18309;DHT22;9280;50.276;18.650;2022-07-24T04:27:57;17.70;99.90
18309;DHT22;9280;50.276;18.650;2022-07-24T04:30:43;17.70;99.90
18309;DHT22;9280;50.276;18.650;2022-07-24T04:33:30;17.80;99.90
18309;DHT22;9280;50.276;18.650;2022-07-24T04:36:16;17.90;99.90
18309;DHT22;9280;50.276;18.650;2022-07-24T04:39:02;17.90;99.90
18309;DHT22;9280;50.276;18.650;2022-07-24T04:41:50;18.00;99.90
18309;DHT22;9280;50.276;18.650;2022-07-24T04:44:36;18.00;99.90
18309;DHT22;9280;50.276;18.650;2022-07-24T04:47:22;18.10;99.90
18309;DHT22;9280;50.276;18.650;2022-07-24T04:50:09;18.20;99.90
18309;DHT22;9280;50.276;18.650;2022-07-24T04:52:55;18.30;99.90
18309;DHT22;9280;50.276;18.650;2022-07-24T04:55:42;18.30;99.90
18309;DHT22;9280;50.276;18.650;2022-07-24T04:58:29;18.30;99.90
18309;DHT22;9280;50.276;18.650;2022-07-24T05:01:15;18.40;99.90
18309;DHT22;9280;50.276;18.650;2022-07-24T05:04:02;18.50;99.90
18309;DHT22;9280;50.276;18.650;2022-07-24T05:06:48;18.50;99.90
18309;DHT22;9280;50.276;18.650;2022-07-24T05:09:35;18.50;99.90
18309;DHT22;9280;50.276;18.650;2022-07-24T05:12:22;18.60;99.90
18309;DHT22;9280;50.276;18.650;2022-07-24T05:15:11;18.80;99.90
18309;DHT22;9280;50.276;18.650;2022-07-24T05:18:00;18.80;99.90
18309;DHT22;9280;50.276;18.650;2022-07-24T05:20:46;18.90;99.90
18309;DHT22;9280;50.276;18.650;2022-07-24T05:23:32;19.00;99.90
18309;DHT22;9280;50.276;18.650;2022-07-24T05:26:18;19.00;99.90
18309;DHT22;9280;50.276;18.650;2022-07-24T05:29:05;19.10;99.90
18309;DHT22;9280;50.276;18.650;2022-07-24T05:31:53;19.20;99.90
18309;DHT22;9280;50.276;18.650;2022-07-24T05:34:39;19.30;99.90
18309;DHT22;9280;50.276;18.650;2022-07-24T05:37:25;19.50;99.90
18309;DHT22;9280;50.276;18.650;2022-07-24T05:40:12;19.60;99.90
18309;DHT22;9280;50.276;18.650;2022-07-24T05:42:58;19.70;99.90
18309;DHT22;9280;50.276;18.650;2022-07-24T05:45:44;19.70;99.90
18309;DHT22;9280;50.276;18.650;2022-07-24T05:48:32;19.80;99.90
18309;DHT22;9280;50.276;18.650;2022-07-24T05:51:19;19.80;99.90
18309;DHT22;9280;50.276;18.650;2022-07-24T05:54:05;19.80;99.90
18309;DHT22;9280;50.276;18.650;2022-07-24T05:56:51;19.90;99.90
18309;DHT22;9280;50.276;18.650;2022-07-24T05:59:37;20.00;99.90
18309;DHT22;9280;50.276;18.650;2022-07-24T06:02:24;20.00;99.90
18309;DHT22;9280;50.276;18.650;2022-07-24T06:05:11;20.00;99.90
18309;DHT22;9280;50.276;18.650;2022-07-24T06:07:58;20.20;99.90
18309;DHT22;9280;50.276;18.650;2022-07-24T06:10:44;20.30;99.90
18309;DHT22;9280;50.276;18.650;2022-07-24T06:13:31;20.20;99.90
18309;DHT22;9280;50.276;18.650;2022-07-24T06:16:18;20.40;99.90
18309;DHT22;9280;50.276;18.650;2022-07-24T06:19:04;20.40;99.90
18309;DHT22;9280;50.276;18.650;2022-07-24T06:21:52;20.40;99.90
18309;DHT22;9280;50.276;18.650;2022-07-24T06:24:38;20.50;99.90
18309;DHT22;9280;50.276;18.650;2022-07-24T06:27:24;20.40;99.90
18309;DHT22;9280;50.276;18.650;2022-07-24T06:30:13;20.50;99.90
18309;DHT22;9280;50.276;18.650;2022-07-24T06:32:59;20.60;99.90
18309;DHT22;9280;50.276;18.650;2022-07-24T06:35:45;20.60;99.90
18309;DHT22;9280;50.276;18.650;2022-07-24T06:38:33;20.50;99.90
18309;DHT22;9280;50.276;18.650;2022-07-24T06:41:19;20.70;99.90
18309;DHT22;9280;50.276;18.650;2022-07-24T06:44:05;20.80;99.90
18309;DHT22;9280;50.276;18.650;2022-07-24T06:46:52;20.90;99.90
18309;DHT22;9280;50.276;18.650;2022-07-24T06:49:38;20.90;99.90
18309;DHT22;9280;50.276;18.650;2022-07-24T06:52:24;20.90;99.90
18309;DHT22;9280;50.276;18.650;2022-07-24T06:55:12;21.00;99.90
18309;DHT22;9280;50.276;18.650;2022-07-24T06:57:58;21.00;99.90
18309;DHT22;9280;50.276;18.650;2022-07-24T07:00:44;21.10;99.90
18309;DHT22;9280;50.276;18.650;2022-07-24T07:03:30;21.10;99.90
18309;DHT22;9280;50.276;18.650;2022-07-24T07:06:17;21.30;99.90
18309;DHT22;9280;50.276;18.650;2022-07-24T07:09:03;21.40;99.90
18309;DHT22;9280;50.276;18.650;2022-07-24T07:11:51;21.30;99.90
18309;DHT22;9280;50.276;18.650;2022-07-24T07:14:37;21.50;99.90
18309;DHT22;9280;50.276;18.650;2022-07-24T07:17:23;21.50;99.90
18309;DHT22;9280;50.276;18.650;2022-07-24T07:20:10;21.60;99.90
18309;DHT22;9280;50.276;18.650;2022-07-24T07:22:57;21.50;99.90
18309;DHT22;9280;50.276;18.650;2022-07-24T07:25:43;21.60;99.90
18309;DHT22;9280;50.276;18.650;2022-07-24T07:28:31;21.60;99.90
18309;DHT22;9280;50.276;18.650;2022-07-24T07:31:17;21.70;99.90
18309;DHT22;9280;50.276;18.650;2022-07-24T07:34:03;21.90;99.90
18309;DHT22;9280;50.276;18.650;2022-07-24T07:36:49;22.20;99.90
18309;DHT22;9280;50.276;18.650;2022-07-24T07:39:35;22.30;99.90
18309;DHT22;9280;50.276;18.650;2022-07-24T07:42:22;22.20;99.50
18309;DHT22;9280;50.276;18.650;2022-07-24T07:45:10;22.40;99.50
18309;DHT22;9280;50.276;18.650;2022-07-24T07:47:56;22.80;98.70
18309;DHT22;9280;50.276;18.650;2022-07-24T07:50:42;23.00;96.20
18309;DHT22;9280;50.276;18.650;2022-07-24T07:53:28;23.20;96.10
18309;DHT22;9280;50.276;18.650;2022-07-24T07:56:15;23.30;97.00
18309;DHT22;9280;50.276;18.650;2022-07-24T07:59:01;23.10;96.50
18309;DHT22;9280;50.276;18.650;2022-07-24T08:01:49;23.40;94.30
18309;DHT22;9280;50.276;18.650;2022-07-24T08:04:35;23.20;93.50
18309;DHT22;9280;50.276;18.650;2022-07-24T08:07:21;23.30;93.40
18309;DHT22;9280;50.276;18.650;2022-07-24T08:10:08;23.00;94.70
18309;DHT22;9280;50.276;18.650;2022-07-24T08:12:54;22.80;96.00
18309;DHT22;9280;50.276;18.650;2022-07-24T08:15:40;22.30;96.50
18309;DHT22;9280;50.276;18.650;2022-07-24T08:18:27;22.10;97.70
18309;DHT22;9280;50.276;18.650;2022-07-24T08:21:13;22.40;96.70
18309;DHT22;9280;50.276;18.650;2022-07-24T08:24:02;22.50;95.90
18309;DHT22;9280;50.276;18.650;2022-07-24T08:26:49;22.50;94.00
18309;DHT22;9280;50.276;18.650;2022-07-24T08:29:35;22.80;92.10
18309;DHT22;9280;50.276;18.650;2022-07-24T08:32:22;23.30;91.60
18309;DHT22;9280;50.276;18.650;2022-07-24T08:35:09;23.50;90.30
18309;DHT22;9280;50.276;18.650;2022-07-24T08:37:56;23.90;89.70
18309;DHT22;9280;50.276;18.650;2022-07-24T08:40:42;24.10;88.60
18309;DHT22;9280;50.276;18.650;2022-07-24T08:43:28;23.70;81.20
18309;DHT22;9280;50.276;18.650;2022-07-24T08:46:15;23.20;82.70
18309;DHT22;9280;50.276;18.650;2022-07-24T08:49:02;23.30;81.20
18309;DHT22;9280;50.276;18.650;2022-07-24T08:51:50;23.60;84.20
18309;DHT22;9280;50.276;18.650;2022-07-24T08:54:37;23.40;87.70
18309;DHT22;9280;50.276;18.650;2022-07-24T08:57:23;22.80;89.10
18309;DHT22;9280;50.276;18.650;2022-07-24T09:00:11;22.60;91.60
18309;DHT22;9280;50.276;18.650;2022-07-24T09:02:57;22.30;90.80
18309;DHT22;9280;50.276;18.650;2022-07-24T09:05:53;22.60;91.20
18309;DHT22;9280;50.276;18.650;2022-07-24T09:08:42;23.00;88.70
18309;DHT22;9280;50.276;18.650;2022-07-24T09:11:29;23.00;84.70
18309;DHT22;9280;50.276;18.650;2022-07-24T09:14:15;23.50;82.90
18309;DHT22;9280;50.276;18.650;2022-07-24T09:17:18;23.60;82.00
18309;DHT22;9280;50.276;18.650;2022-07-24T09:20:08;23.90;81.20
18309;DHT22;9280;50.276;18.650;2022-07-24T09:22:57;23.90;81.20
18309;DHT22;9280;50.276;18.650;2022-07-24T09:25:50;23.60;82.90
18309;DHT22;9280;50.276;18.650;2022-07-24T09:28:47;23.40;81.60
18309;DHT22;9280;50.276;18.650;2022-07-24T09:31:52;23.30;72.00
18309;DHT22;9280;50.276;18.650;2022-07-24T09:34:39;23.60;74.20
18309;DHT22;9280;50.276;18.650;2022-07-24T09:37:27;23.90;75.20
18309;DHT22;9280;50.276;18.650;2022-07-24T09:40:13;23.70;63.70
18309;DHT22;9280;50.276;18.650;2022-07-24T09:43:18;23.20;66.20
18309;DHT22;9280;50.276;18.650;2022-07-24T09:46:06;23.30;65.60
18309;DHT22;9280;50.276;18.650;2022-07-24T09:48:54;23.80;62.30
18309;DHT22;9280;50.276;18.650;2022-07-24T09:51:42;24.20;61.90
18309;DHT22;9280;50.276;18.650;2022-07-24T09:54:30;24.80;60.90
18309;DHT22;9280;50.276;18.650;2022-07-24T09:57:22;24.00;61.60
18309;DHT22;9280;50.276;18.650;2022-07-24T10:00:11;23.70;59.00
18309;DHT22;9280;50.276;18.650;2022-07-24T10:02:57;23.70;59.50
18309;DHT22;9280;50.276;18.650;2022-07-24T10:05:46;23.90;58.50
18309;DHT22;9280;50.276;18.650;2022-07-24T10:08:34;24.00;58.20
18309;DHT22;9280;50.276;18.650;2022-07-24T10:11:21;24.10;58.50
18309;DHT22;9280;50.276;18.650;2022-07-24T10:14:07;24.10;62.40
18309;DHT22;9280;50.276;18.650;2022-07-24T10:17:02;23.70;62.00
18309;DHT22;9280;50.276;18.650;2022-07-24T10:19:51;23.40;62.40
18309;DHT22;9280;50.276;18.650;2022-07-24T10:22:46;23.40;60.80
18309;DHT22;9280;50.276;18.650;2022-07-24T10:25:52;23.50;59.40
18309;DHT22;9280;50.276;18.650;2022-07-24T10:28:41;23.60;57.40
18309;DHT22;9280;50.276;18.650;2022-07-24T10:31:27;23.70;57.70
18309;DHT22;9280;50.276;18.650;2022-07-24T10:34:24;23.70;57.10
18309;DHT22;9280;50.276;18.650;2022-07-24T10:37:21;23.60;54.40
18309;DHT22;9280;50.276;18.650;2022-07-24T10:40:18;23.70;55.60
18309;DHT22;9280;50.276;18.650;2022-07-24T10:43:10;23.70;56.70
18309;DHT22;9280;50.276;18.650;2022-07-24T10:46:11;23.50;55.20
18309;DHT22;9280;50.276;18.650;2022-07-24T10:49:03;23.50;55.20
18309;DHT22;9280;50.276;18.650;2022-07-24T10:51:59;23.70;53.10
18309;DHT22;9280;50.276;18.650;2022-07-24T10:54:45;23.90;50.40
18309;DHT22;9280;50.276;18.650;2022-07-24T10:57:48;24.00;50.60
18309;DHT22;9280;50.276;18.650;2022-07-24T11:00:36;24.10;52.10
18309;DHT22;9280;50.276;18.650;2022-07-24T11:03:24;24.10;51.80
18309;DHT22;9280;50.276;18.650;2022-07-24T11:06:12;24.30;51.80
18309;DHT22;9280;50.276;18.650;2022-07-24T11:09:02;24.20;51.60
18309;DHT22;9280;50.276;18.650;2022-07-24T11:12:06;24.40;51.70
18309;DHT22;9280;50.276;18.650;2022-07-24T11:14:52;24.60;53.00
18309;DHT22;9280;50.276;18.650;2022-07-24T11:17:39;24.50;52.60
18309;DHT22;9280;50.276;18.650;2022-07-24T11:20:32;24.30;53.40
18309;DHT22;9280;50.276;18.650;2022-07-24T11:23:20;24.20;54.30
18309;DHT22;9280;50.276;18.650;2022-07-24T11:26:39;24.50;53.40
18309;DHT22;9280;50.276;18.650;2022-07-24T11:29:28;24.70;51.60
18309;DHT22;9280;50.276;18.650;2022-07-24T11:32:15;24.50;51.10
18309;DHT22;9280;50.276;18.650;2022-07-24T11:35:03;24.70;50.40
18309;DHT22;9280;50.276;18.650;2022-07-24T11:37:51;24.80;50.00
18309;DHT22;9280;50.276;18.650;2022-07-24T11:40:37;24.90;49.40
18309;DHT22;9280;50.276;18.650;2022-07-24T11:43:25;24.80;49.20
18309;DHT22;9280;50.276;18.650;2022-07-24T11:46:11;24.80;49.60
18309;DHT22;9280;50.276;18.650;2022-07-24T11:49:02;24.90;48.80
18309;DHT22;9280;50.276;18.650;2022-07-24T11:51:50;25.00;47.80
18309;DHT22;9280;50.276;18.650;2022-07-24T11:54:40;25.20;47.90
18309;DHT22;9280;50.276;18.650;2022-07-24T11:57:28;24.90;47.40
18309;DHT22;9280;50.276;18.650;2022-07-24T12:00:18;25.30;47.00
18309;DHT22;9280;50.276;18.650;2022-07-24T12:03:05;25.30;46.50
18309;DHT22;9280;50.276;18.650;2022-07-24T12:05:52;25.30;46.10
18309;DHT22;9280;50.276;18.650;2022-07-24T12:08:38;25.40;45.40
18309;DHT22;9280;50.276;18.650;2022-07-24T12:11:25;25.30;44.00
18309;DHT22;9280;50.276;18.650;2022-07-24T12:14:15;25.60;43.50
18309;DHT22;9280;50.276;18.650;2022-07-24T12:17:03;26.00;45.50
18309;DHT22;9280;50.276;18.650;2022-07-24T12:19:53;26.30;43.30
18309;DHT22;9280;50.276;18.650;2022-07-24T12:22:39;26.20;43.00
18309;DHT22;9280;50.276;18.650;2022-07-24T12:25:26;26.20;42.50
18309;DHT22;9280;50.276;18.650;2022-07-24T12:28:14;26.20;39.70
18309;DHT22;9280;50.276;18.650;2022-07-24T12:31:06;26.50;40.20
18309;DHT22;9280;50.276;18.650;2022-07-24T12:33:55;26.50;41.50
18309;DHT22;9280;50.276;18.650;2022-07-24T12:36:41;26.50;41.80
18309;DHT22;9280;50.276;18.650;2022-07-24T12:39:28;26.30;41.00
18309;DHT22;9280;50.276;18.650;2022-07-24T12:42:15;26.50;40.00
18309;DHT22;9280;50.276;18.650;2022-07-24T12:45:11;26.40;40.00
18309;DHT22;9280;50.276;18.650;2022-07-24T12:48:21;26.30;37.90
18309;DHT22;9280;50.276;18.650;2022-07-24T12:51:10;26.40;38.70
18309;DHT22;9280;50.276;18.650;2022-07-24T12:53:56;26.80;38.60
18309;DHT22;9280;50.276;18.650;2022-07-24T12:56:43;27.20;38.50
18309;DHT22;9280;50.276;18.650;2022-07-24T12:59:30;27.30;38.20
18309;DHT22;9280;50.276;18.650;2022-07-24T13:02:19;27.10;37.70
18309;DHT22;9280;50.276;18.650;2022-07-24T13:05:05;27.30;36.10
18309;DHT22;9280;50.276;18.650;2022-07-24T13:07:53;27.00;37.80
18309;DHT22;9280;50.276;18.650;2022-07-24T13:10:39;27.90;36.90
18309;DHT22;9280;50.276;18.650;2022-07-24T13:13:26;31.50;32.30
18309;DHT22;9280;50.276;18.650;2022-07-24T13:16:12;34.30;27.40
18309;DHT22;9280;50.276;18.650;2022-07-24T13:18:58;36.30;24.70
18309;DHT22;9280;50.276;18.650;2022-07-24T13:21:48;37.50;22.70
18309;DHT22;9280;50.276;18.650;2022-07-24T13:24:36;39.60;20.70
18309;DHT22;9280;50.276;18.650;2022-07-24T13:27:22;41.60;18.40
18309;DHT22;9280;50.276;18.650;2022-07-24T13:30:09;42.80;16.40
18309;DHT22;9280;50.276;18.650;2022-07-24T13:32:55;41.60;16.50
18309;DHT22;9280;50.276;18.650;2022-07-24T13:35:42;41.90;16.30
18309;DHT22;9280;50.276;18.650;2022-07-24T13:38:28;43.50;15.20
18309;DHT22;9280;50.276;18.650;2022-07-24T13:41:15;43.20;15.10
18309;DHT22;9280;50.276;18.650;2022-07-24T13:44:04;43.10;15.20
18309;DHT22;9280;50.276;18.650;2022-07-24T13:46:50;45.20;13.30
18309;DHT22;9280;50.276;18.650;2022-07-24T13:49:37;43.00;14.40
18309;DHT22;9280;50.276;18.650;2022-07-24T13:52:24;43.70;13.90
18309;DHT22;9280;50.276;18.650;2022-07-24T13:55:13;44.70;12.40
18309;DHT22;9280;50.276;18.650;2022-07-24T13:58:01;45.50;11.60
18309;DHT22;9280;50.276;18.650;2022-07-24T14:00:47;41.60;13.20
18309;DHT22;9280;50.276;18.650;2022-07-24T14:03:34;44.20;12.80
18309;DHT22;9280;50.276;18.650;2022-07-24T14:06:21;44.20;12.60
18309;DHT22;9280;50.276;18.650;2022-07-24T14:09:07;45.10;12.00
18309;DHT22;9280;50.276;18.650;2022-07-24T14:11:54;42.70;12.40
18309;DHT22;9280;50.276;18.650;2022-07-24T14:14:41;44.00;12.30
18309;DHT22;9280;50.276;18.650;2022-07-24T14:17:27;46.20;11.50
18309;DHT22;9280;50.276;18.650;2022-07-24T14:20:14;47.80;10.70
18309;DHT22;9280;50.276;18.650;2022-07-24T14:23:00;47.50;10.60
18309;DHT22;9280;50.276;18.650;2022-07-24T14:25:49;46.90;10.70
18309;DHT22;9280;50.276;18.650;2022-07-24T14:28:35;47.60;10.80
18309;DHT22;9280;50.276;18.650;2022-07-24T14:31:23;44.90;10.60
18309;DHT22;9280;50.276;18.650;2022-07-24T14:34:09;45.00;11.30
18309;DHT22;9280;50.276;18.650;2022-07-24T14:36:55;44.80;11.70
18309;DHT22;9280;50.276;18.650;2022-07-24T14:39:41;44.90;11.80
18309;DHT22;9280;50.276;18.650;2022-07-24T14:42:27;45.50;11.60
18309;DHT22;9280;50.276;18.650;2022-07-24T14:45:14;46.80;10.90
18309;DHT22;9280;50.276;18.650;2022-07-24T14:48:01;46.00;10.70
18309;DHT22;9280;50.276;18.650;2022-07-24T14:50:47;46.80;10.70
18309;DHT22;9280;50.276;18.650;2022-07-24T14:53:33;43.10;12.30
18309;DHT22;9280;50.276;18.650;2022-07-24T14:56:19;44.90;11.50
18309;DHT22;9280;50.276;18.650;2022-07-24T14:59:06;45.80;10.60
18309;DHT22;9280;50.276;18.650;2022-07-24T15:01:52;46.10;10.90
18309;DHT22;9280;50.276;18.650;2022-07-24T15:04:39;45.20;10.90
18309;DHT22;9280;50.276;18.650;2022-07-24T15:07:27;43.50;12.10
18309;DHT22;9280;50.276;18.650;2022-07-24T15:10:13;44.80;11.30
18309;DHT22;9280;50.276;18.650;2022-07-24T15:12:59;46.50;10.80
18309;DHT22;9280;50.276;18.650;2022-07-24T15:15:46;46.40;11.20
18309;DHT22;9280;50.276;18.650;2022-07-24T15:18:33;44.90;11.80
18309;DHT22;9280;50.276;18.650;2022-07-24T15:21:21;44.40;11.40
18309;DHT22;9280;50.276;18.650;2022-07-24T15:24:08;43.70;11.30
18309;DHT22;9280;50.276;18.650;2022-07-24T15:26:54;46.00;11.00
18309;DHT22;9280;50.276;18.650;2022-07-24T15:29:40;44.60;11.30
18309;DHT22;9280;50.276;18.650;2022-07-24T15:32:26;43.20;11.30
18309;DHT22;9280;50.276;18.650;2022-07-24T15:35:12;44.50;11.20
18309;DHT22;9280;50.276;18.650;2022-07-24T15:37:59;43.80;11.40
18309;DHT22;9280;50.276;18.650;2022-07-24T15:40:46;43.30;11.70
18309;DHT22;9280;50.276;18.650;2022-07-24T15:43:32;44.40;11.50
18309;DHT22;9280;50.276;18.650;2022-07-24T15:46:19;45.60;10.50
18309;DHT22;9280;50.276;18.650;2022-07-24T15:49:06;46.40;10.40
18309;DHT22;9280;50.276;18.650;2022-07-24T15:51:53;45.80;10.40
18309;DHT22;9280;50.276;18.650;2022-07-24T15:54:41;44.20;10.90
18309;DHT22;9280;50.276;18.650;2022-07-24T15:57:27;43.70;10.90
18309;DHT22;9280;50.276;18.650;2022-07-24T16:00:16;45.60;10.60
18309;DHT22;9280;50.276;18.650;2022-07-24T16:03:06;42.80;11.50
18309;DHT22;9280;50.276;18.650;2022-07-24T16:05:52;42.50;12.20
18309;DHT22;9280;50.276;18.650;2022-07-24T16:08:38;42.00;12.20
18309;DHT22;9280;50.276;18.650;2022-07-24T16:11:25;43.00;12.00
18309;DHT22;9280;50.276;18.650;2022-07-24T16:14:12;42.20;12.30
18309;DHT22;9280;50.276;18.650;2022-07-24T16:16:58;42.10;12.00
18309;DHT22;9280;50.276;18.650;2022-07-24T16:19:44;41.90;12.10
18309;DHT22;9280;50.276;18.650;2022-07-24T16:22:30;42.30;12.00
18309;DHT22;9280;50.276;18.650;2022-07-24T16:25:16;42.30;11.80
18309;DHT22;9280;50.276;18.650;2022-07-24T16:28:04;39.40;13.50
18309;DHT22;9280;50.276;18.650;2022-07-24T16:30:50;37.70;15.30
18309;DHT22;9280;50.276;18.650;2022-07-24T16:33:37;35.40;17.40
18309;DHT22;9280;50.276;18.650;2022-07-24T16:36:23;35.10;17.40
18309;DHT22;9280;50.276;18.650;2022-07-24T16:39:09;37.60;16.00
18309;DHT22;9280;50.276;18.650;2022-07-24T16:41:55;39.00;15.00
18309;DHT22;9280;50.276;18.650;2022-07-24T16:44:43;39.00;15.00
18309;DHT22;9280;50.276;18.650;2022-07-24T16:47:29;40.40;14.40
18309;DHT22;9280;50.276;18.650;2022-07-24T16:50:15;40.90;13.80
18309;DHT22;9280;50.276;18.650;2022-07-24T16:53:01;41.90;13.60
18309;DHT22;9280;50.276;18.650;2022-07-24T16:55:48;41.40;13.60
18309;DHT22;9280;50.276;18.650;2022-07-24T16:58:34;42.00;13.20
18309;DHT22;9280;50.276;18.650;2022-07-24T17:01:21;41.90;12.80
18309;DHT22;9280;50.276;18.650;2022-07-24T17:04:07;42.00;13.00
18309;DHT22;9280;50.276;18.650;2022-07-24T17:06:54;42.30;12.80
18309;DHT22;9280;50.276;18.650;2022-07-24T17:09:40;42.30;12.50
18309;DHT22;9280;50.276;18.650;2022-07-24T17:12:27;41.90;12.90
18309;DHT22;9280;50.276;18.650;2022-07-24T17:15:14;40.70;13.30
18309;DHT22;9280;50.276;18.650;2022-07-24T17:18:02;40.70;13.90
18309;DHT22;9280;50.276;18.650;2022-07-24T17:20:49;39.50;14.10
18309;DHT22;9280;50.276;18.650;2022-07-24T17:23:35;39.00;15.00
18309;DHT22;9280;50.276;18.650;2022-07-24T17:26:21;37.60;15.20
18309;DHT22;9280;50.276;18.650;2022-07-24T17:29:08;38.90;14.80
18309;DHT22;9280;50.276;18.650;2022-07-24T17:31:54;38.80;15.70
18309;DHT22;9280;50.276;18.650;2022-07-24T17:34:41;37.60;16.80
18309;DHT22;9280;50.276;18.650;2022-07-24T17:37:27;34.10;20.10